sensor_id;sensor_type;location;lat;lon;timestamp;temperature;humidity
19110;DHT22;9687;50.836;12.060;2023-04-24T00:02:16;18.00;82.90
19110;DHT22;9687;50.836;12.060;2023-04-24T00:04:44;18.00;82.80
19110;DHT22;9687;50.836;12.060;2023-04-24T00:07:13;18.00;82.80
19110;DHT22;9687;50.836;12.060;2023-04-24T00:09:43;18.00;83.20
19110;DHT22;9687;50.836;12.060;2023-04-24T00:12:11;17.90;83.10
19110;DHT22;9687;50.836;12.060;2023-04-24T00:14:38;17.90;83.00
19110;DHT22;9687;50.836;12.060;2023-04-24T00:17:06;17.80;82.80
19110;DHT22;9687;50.836;12.060;2023-04-24T00:19:33;17.80;82.80
19110;DHT22;9687;50.836;12.060;2023-04-24T00:22:02;17.70;82.80
19110;DHT22;9687;50.836;12.060;2023-04-24T00:24:31;17.70;82.90
19110;DHT22;9687;50.836;12.060;2023-04-24T00:26:59;17.70;82.80
19110;DHT22;9687;50.836;12.060;2023-04-24T00:29:28;17.60;83.00
19110;DHT22;9687;50.836;12.060;2023-04-24T00:31:55;17.60;83.30
19110;DHT22;9687;50.836;12.060;2023-04-24T00:34:23;17.60;83.50
19110;DHT22;9687;50.836;12.060;2023-04-24T00:36:51;17.60;83.30
19110;DHT22;9687;50.836;12.060;2023-04-24T00:39:19;17.60;83.50
19110;DHT22;9687;50.836;12.060;2023-04-24T00:41:48;17.60;83.60
19110;DHT22;9687;50.836;12.060;2023-04-24T00:44:17;17.60;83.50
19110;DHT22;9687;50.836;12.060;2023-04-24T00:46:46;17.60;83.40
19110;DHT22;9687;50.836;12.060;2023-04-24T00:49:18;17.60;83.50
19110;DHT22;9687;50.836;12.060;2023-04-24T00:51:46;17.60;83.60
19110;DHT22;9687;50.836;12.060;2023-04-24T00:54:13;17.60;83.60
19110;DHT22;9687;50.836;12.060;2023-04-24T00:56:42;17.60;83.30
19110;DHT22;9687;50.836;12.060;2023-04-24T00:59:12;17.60;83.20
19110;DHT22;9687;50.836;12.060;2023-04-24T01:01:41;17.60;83.20
19110;DHT22;9687;50.836;12.060;2023-04-24T01:04:09;17.50;83.00
19110;DHT22;9687;50.836;12.060;2023-04-24T01:06:39;17.60;83.20
19110;DHT22;9687;50.836;12.060;2023-04-24T01:09:07;17.50;83.00
19110;DHT22;9687;50.836;12.060;2023-04-24T01:11:35;17.50;82.90
19110;DHT22;9687;50.836;12.060;2023-04-24T01:14:06;17.50;83.00
19110;DHT22;9687;50.836;12.060;2023-04-24T01:16:35;17.50;82.70
19110;DHT22;9687;50.836;12.060;2023-04-24T01:19:04;17.50;82.80
19110;DHT22;9687;50.836;12.060;2023-04-24T01:21:36;17.50;82.80
19110;DHT22;9687;50.836;12.060;2023-04-24T01:24:06;17.50;82.80
19110;DHT22;9687;50.836;12.060;2023-04-24T01:26:34;17.50;82.80
19110;DHT22;9687;50.836;12.060;2023-04-24T01:29:02;17.40;81.90
19110;DHT22;9687;50.836;12.060;2023-04-24T01:31:30;17.40;82.50
19110;DHT22;9687;50.836;12.060;2023-04-24T01:33:59;17.40;82.50
19110;DHT22;9687;50.836;12.060;2023-04-24T01:36:28;17.40;82.60
19110;DHT22;9687;50.836;12.060;2023-04-24T01:38:57;17.40;82.70
19110;DHT22;9687;50.836;12.060;2023-04-24T01:41:27;17.40;82.50
19110;DHT22;9687;50.836;12.060;2023-04-24T01:43:57;17.30;82.40
19110;DHT22;9687;50.836;12.060;2023-04-24T01:46:25;17.30;82.50
19110;DHT22;9687;50.836;12.060;2023-04-24T01:48:53;17.30;82.60
19110;DHT22;9687;50.836;12.060;2023-04-24T01:51:44;17.20;82.50
19110;DHT22;9687;50.836;12.060;2023-04-24T01:54:11;17.20;82.70
19110;DHT22;9687;50.836;12.060;2023-04-24T01:56:42;17.20;82.60
19110;DHT22;9687;50.836;12.060;2023-04-24T01:59:11;17.20;82.70
19110;DHT22;9687;50.836;12.060;2023-04-24T02:01:40;17.20;82.70
19110;DHT22;9687;50.836;12.060;2023-04-24T02:04:08;17.20;82.60
19110;DHT22;9687;50.836;12.060;2023-04-24T02:06:36;17.10;82.50
19110;DHT22;9687;50.836;12.060;2023-04-24T02:09:04;17.10;82.60
19110;DHT22;9687;50.836;12.060;2023-04-24T02:11:32;17.10;82.60
19110;DHT22;9687;50.836;12.060;2023-04-24T02:14:01;17.10;82.60
19110;DHT22;9687;50.836;12.060;2023-04-24T02:16:29;17.10;82.60
19110;DHT22;9687;50.836;12.060;2023-04-24T02:18:59;17.10;82.60
19110;DHT22;9687;50.836;12.060;2023-04-24T02:21:27;17.00;82.40
19110;DHT22;9687;50.836;12.060;2023-04-24T02:23:54;17.00;82.40
19110;DHT22;9687;50.836;12.060;2023-04-24T02:26:23;17.00;82.20
19110;DHT22;9687;50.836;12.060;2023-04-24T02:28:51;16.90;82.10
19110;DHT22;9687;50.836;12.060;2023-04-24T02:31:20;16.90;82.00
19110;DHT22;9687;50.836;12.060;2023-04-24T02:33:49;16.80;81.80
19110;DHT22;9687;50.836;12.060;2023-04-24T02:36:16;16.70;81.80
19110;DHT22;9687;50.836;12.060;2023-04-24T02:38:44;16.70;82.00
19110;DHT22;9687;50.836;12.060;2023-04-24T02:41:11;16.60;82.00
19110;DHT22;9687;50.836;12.060;2023-04-24T02:43:40;16.60;82.30
19110;DHT22;9687;50.836;12.060;2023-04-24T02:46:07;16.60;82.50
19110;DHT22;9687;50.836;12.060;2023-04-24T02:48:36;16.60;82.40
19110;DHT22;9687;50.836;12.060;2023-04-24T02:51:04;16.60;81.80
19110;DHT22;9687;50.836;12.060;2023-04-24T02:53:32;16.60;82.50
19110;DHT22;9687;50.836;12.060;2023-04-24T02:56:00;16.60;82.40
19110;DHT22;9687;50.836;12.060;2023-04-24T02:58:29;16.60;82.30
19110;DHT22;9687;50.836;12.060;2023-04-24T03:00:57;16.60;82.30
19110;DHT22;9687;50.836;12.060;2023-04-24T03:03:24;16.60;82.20
19110;DHT22;9687;50.836;12.060;2023-04-24T03:05:53;16.60;82.30
19110;DHT22;9687;50.836;12.060;2023-04-24T03:08:21;16.60;82.30
19110;DHT22;9687;50.836;12.060;2023-04-24T03:10:49;16.60;82.20
19110;DHT22;9687;50.836;12.060;2023-04-24T03:13:17;16.60;82.10
19110;DHT22;9687;50.836;12.060;2023-04-24T03:15:45;16.60;82.10
19110;DHT22;9687;50.836;12.060;2023-04-24T03:18:14;16.50;82.00
19110;DHT22;9687;50.836;12.060;2023-04-24T03:20:41;16.50;82.40
19110;DHT22;9687;50.836;12.060;2023-04-24T03:23:10;16.40;82.30
19110;DHT22;9687;50.836;12.060;2023-04-24T03:26:05;16.40;82.50
19110;DHT22;9687;50.836;12.060;2023-04-24T03:28:33;16.40;82.70
19110;DHT22;9687;50.836;12.060;2023-04-24T03:31:01;16.40;82.60
19110;DHT22;9687;50.836;12.060;2023-04-24T03:33:29;16.40;82.40
19110;DHT22;9687;50.836;12.060;2023-04-24T03:35:56;16.40;82.30
19110;DHT22;9687;50.836;12.060;2023-04-24T03:38:26;16.40;82.30
19110;DHT22;9687;50.836;12.060;2023-04-24T03:40:53;16.40;82.10
19110;DHT22;9687;50.836;12.060;2023-04-24T03:43:21;16.40;81.90
19110;DHT22;9687;50.836;12.060;2023-04-24T03:46:07;16.30;81.70
19110;DHT22;9687;50.836;12.060;2023-04-24T03:48:35;16.30;81.70
19110;DHT22;9687;50.836;12.060;2023-04-24T03:51:03;16.30;81.70
19110;DHT22;9687;50.836;12.060;2023-04-24T03:53:33;16.30;81.70
19110;DHT22;9687;50.836;12.060;2023-04-24T03:56:00;16.30;81.80
19110;DHT22;9687;50.836;12.060;2023-04-24T03:58:28;16.30;81.80
19110;DHT22;9687;50.836;12.060;2023-04-24T04:00:55;16.30;81.80
19110;DHT22;9687;50.836;12.060;2023-04-24T04:03:24;16.30;81.80
19110;DHT22;9687;50.836;12.060;2023-04-24T04:05:52;16.30;81.80
19110;DHT22;9687;50.836;12.060;2023-04-24T04:08:20;16.30;81.80
19110;DHT22;9687;50.836;12.060;2023-04-24T04:10:49;16.20;81.80
19110;DHT22;9687;50.836;12.060;2023-04-24T04:13:17;16.20;81.70
19110;DHT22;9687;50.836;12.060;2023-04-24T04:15:44;16.20;81.80
19110;DHT22;9687;50.836;12.060;2023-04-24T04:18:12;16.10;81.90
19110;DHT22;9687;50.836;12.060;2023-04-24T04:20:40;16.10;81.90
19110;DHT22;9687;50.836;12.060;2023-04-24T04:23:07;16.00;81.80
19110;DHT22;9687;50.836;12.060;2023-04-24T04:25:35;16.00;81.90
19110;DHT22;9687;50.836;12.060;2023-04-24T04:28:04;16.00;82.30
19110;DHT22;9687;50.836;12.060;2023-04-24T04:30:33;16.00;82.30
19110;DHT22;9687;50.836;12.060;2023-04-24T04:33:01;16.00;82.30
19110;DHT22;9687;50.836;12.060;2023-04-24T04:35:28;15.90;82.30
19110;DHT22;9687;50.836;12.060;2023-04-24T04:37:56;16.00;82.60
19110;DHT22;9687;50.836;12.060;2023-04-24T04:40:24;16.00;82.80
19110;DHT22;9687;50.836;12.060;2023-04-24T04:42:52;16.00;82.80
19110;DHT22;9687;50.836;12.060;2023-04-24T04:45:22;16.00;82.60
19110;DHT22;9687;50.836;12.060;2023-04-24T04:47:50;15.90;82.60
19110;DHT22;9687;50.836;12.060;2023-04-24T04:50:17;15.90;82.80
19110;DHT22;9687;50.836;12.060;2023-04-24T04:52:45;15.80;82.70
19110;DHT22;9687;50.836;12.060;2023-04-24T04:55:13;15.80;82.90
19110;DHT22;9687;50.836;12.060;2023-04-24T04:57:40;15.70;83.20
19110;DHT22;9687;50.836;12.060;2023-04-24T05:00:09;15.70;83.40
19110;DHT22;9687;50.836;12.060;2023-04-24T05:02:39;15.70;83.70
19110;DHT22;9687;50.836;12.060;2023-04-24T05:05:07;15.70;83.70
19110;DHT22;9687;50.836;12.060;2023-04-24T05:07:35;15.70;83.70
19110;DHT22;9687;50.836;12.060;2023-04-24T05:10:04;15.80;83.80
19110;DHT22;9687;50.836;12.060;2023-04-24T05:12:31;15.80;83.80
19110;DHT22;9687;50.836;12.060;2023-04-24T05:14:59;15.80;83.90
19110;DHT22;9687;50.836;12.060;2023-04-24T05:17:26;15.80;84.00
19110;DHT22;9687;50.836;12.060;2023-04-24T05:19:55;15.90;84.10
19110;DHT22;9687;50.836;12.060;2023-04-24T05:22:23;15.90;84.10
19110;DHT22;9687;50.836;12.060;2023-04-24T05:24:50;16.00;84.20
19110;DHT22;9687;50.836;12.060;2023-04-24T05:27:23;16.00;84.20
19110;DHT22;9687;50.836;12.060;2023-04-24T05:29:51;16.00;84.20
19110;DHT22;9687;50.836;12.060;2023-04-24T05:32:18;16.00;84.20
19110;DHT22;9687;50.836;12.060;2023-04-24T05:34:57;16.00;83.90
19110;DHT22;9687;50.836;12.060;2023-04-24T05:37:25;15.90;83.90
19110;DHT22;9687;50.836;12.060;2023-04-24T05:39:52;16.00;84.10
19110;DHT22;9687;50.836;12.060;2023-04-24T05:42:29;16.00;84.00
19110;DHT22;9687;50.836;12.060;2023-04-24T05:44:56;16.00;83.60
19110;DHT22;9687;50.836;12.060;2023-04-24T05:47:24;16.00;83.20
19110;DHT22;9687;50.836;12.060;2023-04-24T05:49:52;16.00;83.10
19110;DHT22;9687;50.836;12.060;2023-04-24T05:52:21;16.00;83.20
19110;DHT22;9687;50.836;12.060;2023-04-24T05:54:49;15.90;83.30
19110;DHT22;9687;50.836;12.060;2023-04-24T05:57:19;15.90;83.40
19110;DHT22;9687;50.836;12.060;2023-04-24T05:59:47;15.90;83.40
19110;DHT22;9687;50.836;12.060;2023-04-24T06:02:15;15.90;83.30
19110;DHT22;9687;50.836;12.060;2023-04-24T06:04:43;15.80;83.10
19110;DHT22;9687;50.836;12.060;2023-04-24T06:07:11;15.80;83.30
19110;DHT22;9687;50.836;12.060;2023-04-24T06:09:40;15.80;83.50
19110;DHT22;9687;50.836;12.060;2023-04-24T06:12:07;15.80;83.10
19110;DHT22;9687;50.836;12.060;2023-04-24T06:14:35;15.70;83.30
19110;DHT22;9687;50.836;12.060;2023-04-24T06:17:03;15.70;83.60
19110;DHT22;9687;50.836;12.060;2023-04-24T06:19:30;15.70;83.60
19110;DHT22;9687;50.836;12.060;2023-04-24T06:21:58;15.80;83.80
19110;DHT22;9687;50.836;12.060;2023-04-24T06:24:27;15.80;83.60
19110;DHT22;9687;50.836;12.060;2023-04-24T06:26:56;15.80;83.50
19110;DHT22;9687;50.836;12.060;2023-04-24T06:29:26;15.80;83.80
19110;DHT22;9687;50.836;12.060;2023-04-24T06:31:53;15.80;83.80
19110;DHT22;9687;50.836;12.060;2023-04-24T06:34:21;15.80;83.80
19110;DHT22;9687;50.836;12.060;2023-04-24T06:37:07;15.70;84.00
19110;DHT22;9687;50.836;12.060;2023-04-24T06:39:34;15.60;84.10
19110;DHT22;9687;50.836;12.060;2023-04-24T06:42:03;15.60;84.10
19110;DHT22;9687;50.836;12.060;2023-04-24T06:44:30;15.70;84.50
19110;DHT22;9687;50.836;12.060;2023-04-24T06:46:58;15.70;84.30
19110;DHT22;9687;50.836;12.060;2023-04-24T06:49:26;15.70;84.60
19110;DHT22;9687;50.836;12.060;2023-04-24T06:51:53;15.70;84.70
19110;DHT22;9687;50.836;12.060;2023-04-24T06:54:20;15.70;84.90
19110;DHT22;9687;50.836;12.060;2023-04-24T06:56:49;15.70;84.90
19110;DHT22;9687;50.836;12.060;2023-04-24T06:59:19;15.70;85.10
19110;DHT22;9687;50.836;12.060;2023-04-24T07:01:47;15.90;85.50
19110;DHT22;9687;50.836;12.060;2023-04-24T07:04:15;16.00;85.30
19110;DHT22;9687;50.836;12.060;2023-04-24T07:06:45;16.00;84.90
19110;DHT22;9687;50.836;12.060;2023-04-24T07:09:14;16.10;84.70
19110;DHT22;9687;50.836;12.060;2023-04-24T07:11:43;16.20;84.80
19110;DHT22;9687;50.836;12.060;2023-04-24T07:14:13;16.30;84.10
19110;DHT22;9687;50.836;12.060;2023-04-24T07:16:44;16.50;83.80
19110;DHT22;9687;50.836;12.060;2023-04-24T07:19:13;16.60;83.30
19110;DHT22;9687;50.836;12.060;2023-04-24T07:21:41;16.60;82.50
19110;DHT22;9687;50.836;12.060;2023-04-24T07:24:10;16.80;82.30
19110;DHT22;9687;50.836;12.060;2023-04-24T07:26:38;16.80;81.60
19110;DHT22;9687;50.836;12.060;2023-04-24T07:29:06;16.90;81.00
19110;DHT22;9687;50.836;12.060;2023-04-24T07:31:35;16.90;80.30
19110;DHT22;9687;50.836;12.060;2023-04-24T07:34:09;17.00;80.20
19110;DHT22;9687;50.836;12.060;2023-04-24T07:36:40;17.00;80.40
19110;DHT22;9687;50.836;12.060;2023-04-24T07:39:09;17.10;79.80
19110;DHT22;9687;50.836;12.060;2023-04-24T07:41:38;17.20;79.20
19110;DHT22;9687;50.836;12.060;2023-04-24T07:44:08;17.20;78.70
19110;DHT22;9687;50.836;12.060;2023-04-24T07:46:37;17.30;78.40
19110;DHT22;9687;50.836;12.060;2023-04-24T07:49:08;17.50;77.80
19110;DHT22;9687;50.836;12.060;2023-04-24T07:51:41;17.60;77.50
19110;DHT22;9687;50.836;12.060;2023-04-24T07:54:10;17.80;77.40
19110;DHT22;9687;50.836;12.060;2023-04-24T07:56:38;18.00;76.80
19110;DHT22;9687;50.836;12.060;2023-04-24T07:59:12;18.10;75.80
19110;DHT22;9687;50.836;12.060;2023-04-24T08:01:40;18.20;75.10
19110;DHT22;9687;50.836;12.060;2023-04-24T08:04:09;18.30;74.90
19110;DHT22;9687;50.836;12.060;2023-04-24T08:06:44;18.40;74.10
19110;DHT22;9687;50.836;12.060;2023-04-24T08:09:11;18.50;73.40
19110;DHT22;9687;50.836;12.060;2023-04-24T08:11:39;18.60;72.50
19110;DHT22;9687;50.836;12.060;2023-04-24T08:14:06;18.60;71.40
19110;DHT22;9687;50.836;12.060;2023-04-24T08:16:54;18.50;71.00
19110;DHT22;9687;50.836;12.060;2023-04-24T08:19:23;18.60;71.30
19110;DHT22;9687;50.836;12.060;2023-04-24T08:21:51;18.60;71.30
19110;DHT22;9687;50.836;12.060;2023-04-24T08:24:19;18.60;71.10
19110;DHT22;9687;50.836;12.060;2023-04-24T08:26:48;18.60;70.80
19110;DHT22;9687;50.836;12.060;2023-04-24T08:29:19;18.60;70.40
19110;DHT22;9687;50.836;12.060;2023-04-24T08:31:48;18.60;70.50
19110;DHT22;9687;50.836;12.060;2023-04-24T08:34:16;18.70;69.90
19110;DHT22;9687;50.836;12.060;2023-04-24T08:36:45;18.60;69.40
19110;DHT22;9687;50.836;12.060;2023-04-24T08:39:12;18.60;69.40
19110;DHT22;9687;50.836;12.060;2023-04-24T08:41:41;18.60;69.10
19110;DHT22;9687;50.836;12.060;2023-04-24T08:44:09;18.60;68.40
19110;DHT22;9687;50.836;12.060;2023-04-24T08:46:37;18.60;67.70
19110;DHT22;9687;50.836;12.060;2023-04-24T08:49:07;18.50;67.40
19110;DHT22;9687;50.836;12.060;2023-04-24T08:51:36;18.40;67.50
19110;DHT22;9687;50.836;12.060;2023-04-24T08:54:06;18.40;67.90
19110;DHT22;9687;50.836;12.060;2023-04-24T08:56:37;18.40;68.20
19110;DHT22;9687;50.836;12.060;2023-04-24T08:59:05;18.40;68.50
19110;DHT22;9687;50.836;12.060;2023-04-24T09:01:34;18.60;69.30
19110;DHT22;9687;50.836;12.060;2023-04-24T09:04:07;19.10;70.20
19110;DHT22;9687;50.836;12.060;2023-04-24T09:06:37;20.00;70.10
19110;DHT22;9687;50.836;12.060;2023-04-24T09:09:07;20.90;68.00
19110;DHT22;9687;50.836;12.060;2023-04-24T09:11:36;21.60;65.20
19110;DHT22;9687;50.836;12.060;2023-04-24T09:14:04;22.20;62.30
19110;DHT22;9687;50.836;12.060;2023-04-24T09:16:32;22.50;59.30
19110;DHT22;9687;50.836;12.060;2023-04-24T09:19:00;22.60;57.50
19110;DHT22;9687;50.836;12.060;2023-04-24T09:21:32;22.70;56.00
19110;DHT22;9687;50.836;12.060;2023-04-24T09:24:01;22.70;55.30
19110;DHT22;9687;50.836;12.060;2023-04-24T09:26:32;22.70;55.20
19110;DHT22;9687;50.836;12.060;2023-04-24T09:29:00;22.90;54.90
19110;DHT22;9687;50.836;12.060;2023-04-24T09:31:28;23.10;54.50
19110;DHT22;9687;50.836;12.060;2023-04-24T09:33:57;23.10;53.90
19110;DHT22;9687;50.836;12.060;2023-04-24T09:36:29;23.10;53.70
19110;DHT22;9687;50.836;12.060;2023-04-24T09:38:59;23.20;53.40
19110;DHT22;9687;50.836;12.060;2023-04-24T09:41:28;23.30;52.80
19110;DHT22;9687;50.836;12.060;2023-04-24T09:43:58;23.40;51.50
19110;DHT22;9687;50.836;12.060;2023-04-24T09:46:32;23.60;50.30
19110;DHT22;9687;50.836;12.060;2023-04-24T09:49:08;23.70;49.60
19110;DHT22;9687;50.836;12.060;2023-04-24T09:51:38;23.70;49.00
19110;DHT22;9687;50.836;12.060;2023-04-24T09:54:14;23.70;48.30
19110;DHT22;9687;50.836;12.060;2023-04-24T09:56:44;23.60;48.40
19110;DHT22;9687;50.836;12.060;2023-04-24T09:59:14;23.50;48.70
19110;DHT22;9687;50.836;12.060;2023-04-24T10:01:42;23.30;48.70
19110;DHT22;9687;50.836;12.060;2023-04-24T10:04:18;23.10;48.30
19110;DHT22;9687;50.836;12.060;2023-04-24T10:06:46;22.90;48.60
19110;DHT22;9687;50.836;12.060;2023-04-24T10:09:15;22.60;48.40
19110;DHT22;9687;50.836;12.060;2023-04-24T10:11:46;22.40;48.50
19110;DHT22;9687;50.836;12.060;2023-04-24T10:14:17;22.10;48.60
19110;DHT22;9687;50.836;12.060;2023-04-24T10:16:45;22.00;48.60
19110;DHT22;9687;50.836;12.060;2023-04-24T10:19:14;21.90;48.30
19110;DHT22;9687;50.836;12.060;2023-04-24T10:21:43;21.90;48.10
19110;DHT22;9687;50.836;12.060;2023-04-24T10:24:13;21.80;48.00
19110;DHT22;9687;50.836;12.060;2023-04-24T10:26:41;21.80;48.30
19110;DHT22;9687;50.836;12.060;2023-04-24T10:29:10;21.90;48.40
19110;DHT22;9687;50.836;12.060;2023-04-24T10:31:40;21.90;48.50
19110;DHT22;9687;50.836;12.060;2023-04-24T10:34:10;22.00;48.60
19110;DHT22;9687;50.836;12.060;2023-04-24T10:36:41;22.10;48.80
19110;DHT22;9687;50.836;12.060;2023-04-24T10:39:16;22.20;48.50
19110;DHT22;9687;50.836;12.060;2023-04-24T10:41:44;22.40;48.20
19110;DHT22;9687;50.836;12.060;2023-04-24T10:44:14;22.60;48.00
19110;DHT22;9687;50.836;12.060;2023-04-24T10:46:46;22.60;47.90
19110;DHT22;9687;50.836;12.060;2023-04-24T10:49:14;22.70;47.70
19110;DHT22;9687;50.836;12.060;2023-04-24T10:51:47;22.60;47.30
19110;DHT22;9687;50.836;12.060;2023-04-24T10:54:26;22.50;47.50
19110;DHT22;9687;50.836;12.060;2023-04-24T10:57:16;22.40;47.90
19110;DHT22;9687;50.836;12.060;2023-04-24T10:59:44;22.40;47.50
19110;DHT22;9687;50.836;12.060;2023-04-24T11:02:14;22.20;47.00
19110;DHT22;9687;50.836;12.060;2023-04-24T11:04:42;22.10;46.70
19110;DHT22;9687;50.836;12.060;2023-04-24T11:07:12;21.90;47.10
19110;DHT22;9687;50.836;12.060;2023-04-24T11:09:42;21.70;47.10
19110;DHT22;9687;50.836;12.060;2023-04-24T11:12:11;21.60;47.00
19110;DHT22;9687;50.836;12.060;2023-04-24T11:15:00;21.50;47.10
19110;DHT22;9687;50.836;12.060;2023-04-24T11:17:35;21.40;47.00
19110;DHT22;9687;50.836;12.060;2023-04-24T11:20:03;21.30;46.90
19110;DHT22;9687;50.836;12.060;2023-04-24T11:22:33;21.20;46.80
19110;DHT22;9687;50.836;12.060;2023-04-24T11:25:02;21.20;46.40
19110;DHT22;9687;50.836;12.060;2023-04-24T11:27:39;21.10;46.70
19110;DHT22;9687;50.836;12.060;2023-04-24T11:30:09;21.10;47.10
19110;DHT22;9687;50.836;12.060;2023-04-24T11:32:39;21.20;47.10
19110;DHT22;9687;50.836;12.060;2023-04-24T11:35:12;21.20;47.00
19110;DHT22;9687;50.836;12.060;2023-04-24T11:37:42;21.20;46.90
19110;DHT22;9687;50.836;12.060;2023-04-24T11:40:12;21.10;47.10
19110;DHT22;9687;50.836;12.060;2023-04-24T11:42:42;21.20;47.80
19110;DHT22;9687;50.836;12.060;2023-04-24T11:45:12;21.30;47.40
19110;DHT22;9687;50.836;12.060;2023-04-24T11:47:42;21.30;46.80
19110;DHT22;9687;50.836;12.060;2023-04-24T11:50:12;21.30;46.40
19110;DHT22;9687;50.836;12.060;2023-04-24T11:52:43;21.10;46.30
19110;DHT22;9687;50.836;12.060;2023-04-24T11:55:26;21.00;46.30
19110;DHT22;9687;50.836;12.060;2023-04-24T11:57:56;20.90;46.80
19110;DHT22;9687;50.836;12.060;2023-04-24T12:00:25;20.90;47.40
19110;DHT22;9687;50.836;12.060;2023-04-24T12:03:06;21.00;47.20
19110;DHT22;9687;50.836;12.060;2023-04-24T12:05:35;21.00;46.90
19110;DHT22;9687;50.836;12.060;2023-04-24T12:08:04;21.00;46.30
19110;DHT22;9687;50.836;12.060;2023-04-24T12:10:33;20.90;46.50
19110;DHT22;9687;50.836;12.060;2023-04-24T12:13:02;20.80;46.10
19110;DHT22;9687;50.836;12.060;2023-04-24T12:15:31;20.60;46.50
19110;DHT22;9687;50.836;12.060;2023-04-24T12:17:59;20.50;45.50
19110;DHT22;9687;50.836;12.060;2023-04-24T12:20:30;20.40;45.50
19110;DHT22;9687;50.836;12.060;2023-04-24T12:23:07;20.30;45.60
19110;DHT22;9687;50.836;12.060;2023-04-24T12:25:38;20.20;45.90
19110;DHT22;9687;50.836;12.060;2023-04-24T12:28:16;20.10;46.20
19110;DHT22;9687;50.836;12.060;2023-04-24T12:30:47;20.00;46.60
19110;DHT22;9687;50.836;12.060;2023-04-24T12:33:19;20.50;47.30
19110;DHT22;9687;50.836;12.060;2023-04-24T12:35:51;19.90;46.80
19110;DHT22;9687;50.836;12.060;2023-04-24T12:38:22;19.90;46.90
19110;DHT22;9687;50.836;12.060;2023-04-24T12:41:03;19.80;46.60
19110;DHT22;9687;50.836;12.060;2023-04-24T12:43:31;19.90;47.20
19110;DHT22;9687;50.836;12.060;2023-04-24T12:45:59;19.80;47.50
19110;DHT22;9687;50.836;12.060;2023-04-24T12:48:27;19.80;47.70
19110;DHT22;9687;50.836;12.060;2023-04-24T12:50:57;19.80;47.80
19110;DHT22;9687;50.836;12.060;2023-04-24T12:53:27;19.90;47.90
19110;DHT22;9687;50.836;12.060;2023-04-24T12:55:57;20.00;47.80
19110;DHT22;9687;50.836;12.060;2023-04-24T12:58:25;20.00;47.50
19110;DHT22;9687;50.836;12.060;2023-04-24T13:00:53;20.00;47.20
19110;DHT22;9687;50.836;12.060;2023-04-24T13:03:20;20.00;47.30
19110;DHT22;9687;50.836;12.060;2023-04-24T13:05:48;20.00;47.30
19110;DHT22;9687;50.836;12.060;2023-04-24T13:08:17;20.00;47.40
19110;DHT22;9687;50.836;12.060;2023-04-24T13:11:00;19.90;47.30
19110;DHT22;9687;50.836;12.060;2023-04-24T13:13:28;19.90;47.70
19110;DHT22;9687;50.836;12.060;2023-04-24T13:15:56;20.00;48.20
19110;DHT22;9687;50.836;12.060;2023-04-24T13:18:24;20.00;48.50
19110;DHT22;9687;50.836;12.060;2023-04-24T13:20:52;20.10;48.50
19110;DHT22;9687;50.836;12.060;2023-04-24T13:23:21;20.10;48.60
19110;DHT22;9687;50.836;12.060;2023-04-24T13:25:49;20.10;48.50
19110;DHT22;9687;50.836;12.060;2023-04-24T13:28:18;20.10;48.30
19110;DHT22;9687;50.836;12.060;2023-04-24T13:30:50;20.10;48.10
19110;DHT22;9687;50.836;12.060;2023-04-24T13:33:18;20.10;48.50
19110;DHT22;9687;50.836;12.060;2023-04-24T13:35:46;20.00;48.50
19110;DHT22;9687;50.836;12.060;2023-04-24T13:38:14;20.00;48.50
19110;DHT22;9687;50.836;12.060;2023-04-24T13:40:45;20.00;48.50
19110;DHT22;9687;50.836;12.060;2023-04-24T13:43:12;20.00;48.50
19110;DHT22;9687;50.836;12.060;2023-04-24T13:45:40;20.00;48.10
19110;DHT22;9687;50.836;12.060;2023-04-24T13:48:08;20.00;48.20
19110;DHT22;9687;50.836;12.060;2023-04-24T13:50:35;20.00;48.50
19110;DHT22;9687;50.836;12.060;2023-04-24T13:53:03;20.00;48.50
19110;DHT22;9687;50.836;12.060;2023-04-24T13:55:31;20.10;48.60
19110;DHT22;9687;50.836;12.060;2023-04-24T13:58:00;20.00;48.50
19110;DHT22;9687;50.836;12.060;2023-04-24T14:00:27;20.00;48.40
19110;DHT22;9687;50.836;12.060;2023-04-24T14:02:56;20.00;48.00
19110;DHT22;9687;50.836;12.060;2023-04-24T14:05:24;19.90;47.90
19110;DHT22;9687;50.836;12.060;2023-04-24T14:07:51;19.90;48.40
19110;DHT22;9687;50.836;12.060;2023-04-24T14:10:19;19.90;48.40
19110;DHT22;9687;50.836;12.060;2023-04-24T14:12:47;19.90;48.50
19110;DHT22;9687;50.836;12.060;2023-04-24T14:15:16;19.80;48.60
19110;DHT22;9687;50.836;12.060;2023-04-24T14:17:43;19.80;48.80
19110;DHT22;9687;50.836;12.060;2023-04-24T14:20:12;19.70;48.70
19110;DHT22;9687;50.836;12.060;2023-04-24T14:22:40;19.60;48.70
19110;DHT22;9687;50.836;12.060;2023-04-24T14:25:08;19.60;48.80
19110;DHT22;9687;50.836;12.060;2023-04-24T14:27:35;19.60;49.00
19110;DHT22;9687;50.836;12.060;2023-04-24T14:30:04;19.50;49.00
19110;DHT22;9687;50.836;12.060;2023-04-24T14:32:33;19.50;49.00
19110;DHT22;9687;50.836;12.060;2023-04-24T14:35:01;19.30;49.00
19110;DHT22;9687;50.836;12.060;2023-04-24T14:37:29;19.40;49.40
19110;DHT22;9687;50.836;12.060;2023-04-24T14:40:29;19.40;49.60
19110;DHT22;9687;50.836;12.060;2023-04-24T14:42:57;19.40;49.90
19110;DHT22;9687;50.836;12.060;2023-04-24T14:45:24;19.40;49.90
19110;DHT22;9687;50.836;12.060;2023-04-24T14:48:09;19.30;50.20
19110;DHT22;9687;50.836;12.060;2023-04-24T14:50:39;19.20;50.30
19110;DHT22;9687;50.836;12.060;2023-04-24T14:53:06;19.20;50.60
19110;DHT22;9687;50.836;12.060;2023-04-24T14:55:34;19.10;50.90
19110;DHT22;9687;50.836;12.060;2023-04-24T14:58:02;19.00;51.10
19110;DHT22;9687;50.836;12.060;2023-04-24T15:00:30;19.00;51.40
19110;DHT22;9687;50.836;12.060;2023-04-24T15:02:58;18.90;51.70
19110;DHT22;9687;50.836;12.060;2023-04-24T15:05:27;18.90;52.10
19110;DHT22;9687;50.836;12.060;2023-04-24T15:07:55;18.90;52.70
19110;DHT22;9687;50.836;12.060;2023-04-24T15:10:22;18.80;53.00
19110;DHT22;9687;50.836;12.060;2023-04-24T15:12:51;18.80;53.30
19110;DHT22;9687;50.836;12.060;2023-04-24T15:15:19;18.80;53.70
19110;DHT22;9687;50.836;12.060;2023-04-24T15:17:47;18.80;53.70
19110;DHT22;9687;50.836;12.060;2023-04-24T15:20:14;18.80;53.60
19110;DHT22;9687;50.836;12.060;2023-04-24T15:22:43;18.90;53.70
19110;DHT22;9687;50.836;12.060;2023-04-24T15:25:11;18.90;53.50
19110;DHT22;9687;50.836;12.060;2023-04-24T15:27:42;18.90;53.30
19110;DHT22;9687;50.836;12.060;2023-04-24T15:30:11;18.90;53.20
19110;DHT22;9687;50.836;12.060;2023-04-24T15:33:07;18.90;53.30
19110;DHT22;9687;50.836;12.060;2023-04-24T15:35:35;18.90;53.40
19110;DHT22;9687;50.836;12.060;2023-04-24T15:38:03;18.90;53.30
19110;DHT22;9687;50.836;12.060;2023-04-24T15:40:31;18.90;53.20
19110;DHT22;9687;50.836;12.060;2023-04-24T15:42:59;18.90;53.20
19110;DHT22;9687;50.836;12.060;2023-04-24T15:45:27;18.90;53.20